Time;durP1;ratioP1;P1;durP2;ratioP2;P2;SDS_P1;SDS_P2;PMS_P1;PMS_P2;Temp;Humidity;BMP_temperature;BMP_pressure;BME280_temperature;BME280_humidity;BME280_pressure;Samples;Min_cycle;Max_cycle;Signal;HPM_P1;HPM_P2
2023/10/17 00:00:12;;;;;;;6.33;2.93;;;;;;;14.18;52.24;99640.25;5094076;28;20159;-89
2023/10/17 00:02:40;;;;;;;5.33;2.60;;;;;;;14.20;52.14;99637.56;5108354;28;20186;-90
2023/10/17 00:05:10;;;;;;;6.63;2.77;;;;;;;14.21;51.75;99639.22;5114107;28;20202;-90
2023/10/17 00:07:37;;;;;;;7.30;2.40;;;;;;;14.16;51.69;99632.44;5113457;28;20190;-90
2023/10/17 00:10:03;;;;;;;5.17;2.17;;;;;;;14.17;51.72;99633.31;5105479;28;20191;-90
2023/10/17 00:12:52;;;;;;;6.60;3.07;;;;;;;14.24;51.48;99633.78;5093468;28;20287;-89
2023/10/17 00:15:27;;;;;;;5.63;2.53;;;;;;;14.26;51.48;99626.63;5106299;28;20193;-90
2023/10/17 00:18:00;;;;;;;7.63;2.63;;;;;;;14.22;51.48;99631.25;5114443;28;20162;-90
2023/10/17 00:20:32;;;;;;;7.63;2.97;;;;;;;14.20;51.32;99638.41;5112574;28;20168;-89
2023/10/17 00:22:58;;;;;;;4.07;2.43;;;;;;;14.16;51.44;99629.81;5113652;28;20623;-89
2023/10/17 00:25:26;;;;;;;5.63;2.40;;;;;;;14.18;51.13;99629.72;5113759;28;20168;-90
2023/10/17 00:27:51;;;;;;;8.10;2.53;;;;;;;14.21;50.92;99626.91;5112165;28;20220;-90
2023/10/17 00:30:18;;;;;;;4.83;2.10;;;;;;;14.19;50.75;99631.41;5113664;28;20213;-90
2023/10/17 00:32:46;;;;;;;5.33;2.60;;;;;;;14.22;50.74;99630.38;5113445;28;20277;-90
2023/10/17 00:35:14;;;;;;;4.90;2.13;;;;;;;14.21;50.58;99632.16;5113613;28;20192;-90
2023/10/17 00:37:46;;;;;;;4.33;1.83;;;;;;;14.18;50.50;99627.06;5113609;28;20177;-89
2023/10/17 00:40:34;;;;;;;4.67;1.93;;;;;;;14.17;50.41;99625.41;5113500;28;20293;-89
2023/10/17 00:42:59;;;;;;;4.57;1.90;;;;;;;14.13;50.05;99622.09;5112514;28;20189;-90
2023/10/17 00:45:26;;;;;;;6.20;2.40;;;;;;;14.10;50.13;99622.25;5112349;28;20192;-89
2023/10/17 00:47:52;;;;;;;6.30;2.17;;;;;;;14.15;50.00;99616.72;5112921;28;20280;-90
2023/10/17 00:50:20;;;;;;;7.07;2.87;;;;;;;14.12;50.02;99619.56;5113795;28;20177;-89
2023/10/17 00:52:47;;;;;;;9.17;2.67;;;;;;;14.10;50.03;99617.00;5114090;28;20217;-89
2023/10/17 00:55:13;;;;;;;4.17;2.03;;;;;;;14.06;50.04;99617.25;5116288;28;20266;-89
2023/10/17 00:57:40;;;;;;;5.43;2.87;;;;;;;14.05;49.70;99619.06;5116673;28;20281;-89
2023/10/17 01:00:16;;;;;;;3.33;1.97;;;;;;;14.03;50.07;99614.81;5117363;28;20284;-89
2023/10/17 01:02:46;;;;;;;10.47;1.80;;;;;;;14.02;49.63;99615.72;5117894;28;20212;-89
2023/10/17 01:05:13;;;;;;;2.97;1.50;;;;;;;13.91;49.58;99616.41;5097248;28;20194;-89
2023/10/17 01:07:40;;;;;;;4.53;1.47;;;;;;;13.86;50.03;99607.88;5097161;28;20183;-88
2023/10/17 01:10:10;;;;;;;2.50;1.27;;;;;;;13.86;49.72;99618.41;5113009;28;20193;-89
2023/10/17 01:13:12;;;;;;;2.23;1.07;;;;;;;13.79;50.19;99622.34;5117613;28;20269;-89
2023/10/17 01:15:33;;;;;;;3.40;1.17;;;;;;;13.70;50.14;99616.78;5115003;27;20196;-88
2023/10/17 01:18:03;;;;;;;3.97;1.17;;;;;;;13.64;50.38;99614.50;5117462;28;20181;-89
2023/10/17 01:20:29;;;;;;;2.73;1.30;;;;;;;13.64;50.66;99619.75;5116059;28;20637;-89
2023/10/17 01:22:57;;;;;;;4.67;2.03;;;;;;;13.56;50.10;99620.19;5117112;28;20179;-89
2023/10/17 01:25:25;;;;;;;2.97;1.20;;;;;;;13.49;50.63;99619.69;5116470;28;20182;-89
2023/10/17 01:27:53;;;;;;;7.90;1.50;;;;;;;13.43;50.74;99616.56;5116856;28;20639;-89
2023/10/17 01:30:19;;;;;;;3.00;1.27;;;;;;;13.38;50.94;99613.34;5116883;28;20175;-89
2023/10/17 01:32:48;;;;;;;2.30;1.13;;;;;;;13.30;50.61;99618.19;5115712;28;20241;-89
2023/10/17 01:35:19;;;;;;;6.83;1.47;;;;;;;13.27;50.85;99618.34;5117513;28;20185;-89
2023/10/17 01:37:47;;;;;;;4.87;1.53;;;;;;;13.22;50.34;99620.41;5116691;28;20178;-89
2023/10/17 01:40:23;;;;;;;2.90;1.17;;;;;;;13.22;50.78;99609.88;5115750;28;20266;-89
2023/10/17 01:42:57;;;;;;;3.27;1.30;;;;;;;13.19;50.10;99615.28;5116544;28;20181;-89
2023/10/17 01:45:25;;;;;;;5.07;2.23;;;;;;;13.10;49.88;99610.56;5104116;28;20222;-89
2023/10/17 01:47:52;;;;;;;6.23;1.37;;;;;;;13.01;50.41;99613.66;5095264;28;20183;-90
2023/10/17 01:50:19;;;;;;;4.07;1.83;;;;;;;13.04;50.07;99616.97;5104801;28;20694;-89
2023/10/17 01:52:46;;;;;;;4.17;2.07;;;;;;;13.00;49.84;99611.97;5115561;28;20206;-88
2023/10/17 01:55:17;;;;;;;3.53;1.93;;;;;;;12.92;50.04;99609.72;5116820;28;20186;-89
2023/10/17 01:57:46;;;;;;;3.30;1.60;;;;;;;12.85;50.41;99605.75;5116607;28;20190;-89
2023/10/17 02:02:58;;;;;;;4.20;1.77;;;;;;;12.66;51.10;99610.28;5116713;28;20172;-89
2023/10/17 02:05:24;;;;;;;5.07;1.63;;;;;;;12.56;51.49;99604.69;5115270;28;20192;-89
2023/10/17 02:07:54;;;;;;;2.57;1.40;;;;;;;12.50;51.79;99594.47;5115323;28;20264;-89
2023/10/17 02:10:21;;;;;;;5.73;1.70;;;;;;;12.45;51.89;99604.38;5116563;28;20177;-89
2023/10/17 02:12:50;;;;;;;3.23;1.30;;;;;;;12.42;52.38;99604.53;5104941;28;20206;-90
2023/10/17 02:15:20;;;;;;;2.20;1.03;;;;;;;12.37;52.77;99603.13;5112018;28;20649;-88
2023/10/17 02:17:47;;;;;;;3.03;0.70;;;;;;;12.31;53.23;99614.78;5116033;28;20656;-88
2023/10/17 02:20:34;;;;;;;3.10;1.33;;;;;;;12.27;52.84;99607.97;5115942;28;20181;-88
2023/10/17 02:23:02;;;;;;;2.83;1.33;;;;;;;12.21;52.66;99609.16;5116571;28;20192;-89
2023/10/17 02:25:35;;;;;;;2.77;1.17;;;;;;;12.21;52.66;99608.31;5114539;28;20608;-89
2023/10/17 02:28:01;;;;;;;2.43;1.30;;;;;;;12.21;52.97;99603.88;5115548;28;20189;-89
2023/10/17 02:30:28;;;;;;;4.63;2.27;;;;;;;12.14;52.90;99609.53;5114880;28;20196;-88
2023/10/17 02:32:54;;;;;;;5.27;2.27;;;;;;;12.07;53.07;99616.06;5115392;28;20260;-89
2023/10/17 02:36:08;;;;;;;6.87;2.07;;;;;;;11.99;53.26;99618.22;5114750;28;20239;-88
2023/10/17 02:38:16;;;;;;;6.33;2.57;;;;;;;11.96;53.37;99621.00;5114422;28;20198;-89
2023/10/17 02:40:51;;;;;;;6.27;2.33;;;;;;;11.96;53.05;99618.38;5115772;28;20211;-88
2023/10/17 02:43:18;;;;;;;6.97;2.13;;;;;;;11.96;52.68;99628.88;5114601;28;20191;-89
2023/10/17 02:45:43;;;;;;;5.40;2.80;;;;;;;11.86;52.22;99633.75;5114642;28;20266;-89
2023/10/17 02:48:25;;;;;;;9.47;2.67;;;;;;;11.77;52.50;99634.19;5115103;28;20746;-89
2023/10/17 02:51:03;;;;;;;13.90;2.60;;;;;;;11.77;52.32;99628.06;5115206;28;20230;-89
2023/10/17 02:53:34;;;;;;;6.07;2.50;;;;;;;11.69;52.09;99631.94;5115972;28;20194;-89
2023/10/17 02:56:18;;;;;;;5.73;2.80;;;;;;;11.61;52.55;99627.94;5115247;27;20179;-89
2023/10/17 02:59:06;;;;;;;9.10;3.07;;;;;;;11.54;52.80;99631.81;5112076;28;20184;-89
2023/10/17 03:01:36;;;;;;;6.23;2.53;;;;;;;11.49;53.24;99633.81;5094846;28;20234;-89
2023/10/17 03:04:08;;;;;;;7.00;3.00;;;;;;;11.46;53.67;99631.31;5095121;28;20178;-89
2023/10/17 03:06:37;;;;;;;7.23;3.30;;;;;;;11.44;53.70;99639.28;5107224;28;20179;-89
2023/10/17 03:14:49;;;;;;;5.77;2.90;;;;;;;11.31;53.94;99651.28;5114969;28;20628;-89
2023/10/17 03:17:16;;;;;;;8.53;3.60;;;;;;;11.30;54.81;99654.84;5114254;28;20608;-89
2023/10/17 03:19:43;;;;;;;7.13;3.63;;;;;;;11.24;54.35;99655.09;5115116;28;20172;-89
2023/10/17 03:22:27;;;;;;;5.17;2.60;;;;;;;11.17;54.49;99643.22;5114923;28;20609;-88
2023/10/17 03:25:18;;;;;;;6.57;3.03;;;;;;;11.15;54.45;99644.22;5114787;28;20557;-88
2023/10/17 03:27:48;;;;;;;5.10;2.77;;;;;;;11.14;54.45;99642.53;5114318;28;20188;-88
2023/10/17 03:30:14;;;;;;;6.17;3.07;;;;;;;11.09;54.38;99640.94;5114362;28;20490;-89
2023/10/17 03:32:54;;;;;;;6.30;3.10;;;;;;;11.06;54.12;99635.84;5114406;28;20286;-88
2023/10/17 03:35:22;;;;;;;5.93;3.23;;;;;;;11.04;54.57;99629.81;5114348;28;20185;-88
2023/10/17 03:37:49;;;;;;;9.93;3.13;;;;;;;11.05;54.82;99623.66;5114547;28;20175;-89
2023/10/17 03:40:18;;;;;;;8.43;3.43;;;;;;;10.99;55.06;99620.47;5114830;28;20333;-89
2023/10/17 03:42:55;;;;;;;6.00;3.00;;;;;;;10.97;55.51;99617.94;5113212;28;20182;-88
2023/10/17 03:48:13;;;;;;;7.53;3.77;;;;;;;10.98;55.99;99619.59;5114593;28;20635;-88
2023/10/17 03:53:15;;;;;;;7.37;3.87;;;;;;;10.91;56.15;99615.56;5113822;28;20204;-88
2023/10/17 03:55:44;;;;;;;12.30;3.53;;;;;;;10.83;55.90;99622.09;5114520;28;20186;-88
2023/10/17 04:00:48;;;;;;;5.00;2.93;;;;;;;10.78;55.49;99618.81;5113854;28;20188;-88
2023/10/17 04:03:22;;;;;;;13.43;3.53;;;;;;;10.78;55.04;99616.19;5113212;28;20604;-88
2023/10/17 04:06:01;;;;;;;9.00;2.87;;;;;;;10.75;54.75;99613.72;5083551;28;20211;-88
2023/10/17 04:08:37;;;;;;;5.37;2.60;;;;;;;10.72;54.26;99617.31;5094232;28;20160;-88
2023/10/17 04:11:18;;;;;;;5.17;2.50;;;;;;;10.64;54.48;99616.00;5093482;28;20175;-88
2023/10/17 04:13:48;;;;;;;7.10;2.80;;;;;;;10.57;54.69;99614.56;5113942;28;20699;-88
2023/10/17 04:16:26;;;;;;;5.27;2.97;;;;;;;10.54;54.60;99614.69;5113797;28;20182;-89
2023/10/17 04:18:59;;;;;;;6.63;2.87;;;;;;;10.57;54.58;99617.16;5113759;28;20242;-88
2023/10/17 04:21:31;;;;;;;4.97;2.60;;;;;;;10.49;54.89;99617.50;5113721;28;20148;-88
2023/10/17 04:24:04;;;;;;;5.33;2.30;;;;;;;10.44;55.05;99624.72;5114168;28;20492;-88
2023/10/17 04:26:34;;;;;;;5.90;2.40;;;;;;;10.46;55.04;99629.00;5113963;28;20187;-88
2023/10/17 04:29:11;;;;;;;5.90;2.97;;;;;;;10.47;55.31;99630.69;5113961;28;20186;-88
2023/10/17 04:31:44;;;;;;;8.83;3.23;;;;;;;10.40;55.32;99633.66;5112474;28;20215;-88
2023/10/17 04:34:18;;;;;;;10.13;3.27;;;;;;;10.40;55.42;99629.25;5112336;28;20199;-88
2023/10/17 04:36:46;;;;;;;6.53;2.53;;;;;;;10.38;55.66;99630.22;5112737;28;20176;-92
2023/10/17 04:44:21;;;;;;;10.40;3.50;;;;;;;10.36;56.75;99632.94;5113553;28;20287;-88
2023/10/17 04:46:50;;;;;;;10.17;3.10;;;;;;;10.39;56.90;99635.44;5112654;28;20180;-88
2023/10/17 04:49:24;;;;;;;7.03;3.23;;;;;;;10.36;56.82;99637.31;5113598;28;20262;-88
2023/10/17 04:52:18;;;;;;;9.60;3.30;;;;;;;10.34;57.46;99644.41;5092600;28;20199;-88
2023/10/17 04:54:47;;;;;;;7.67;3.17;;;;;;;10.31;57.65;99644.53;5073007;28;20239;-88
2023/10/17 04:57:16;;;;;;;6.27;3.10;;;;;;;10.33;57.49;99648.78;5080999;28;20176;-88
2023/10/17 06:17:20;;;;;;;7.00;3.30;;;;;;;20.33;36.69;99634.56;5081623;28;20202;-89
2023/10/17 06:19:47;;;;;;;4.43;2.33;;;;;;;21.04;35.75;99630.97;5096253;28;20251;-89
2023/10/17 06:30:29;;;;;;;5.73;2.27;;;;;;;23.61;32.04;99633.56;5096057;28;20165;-90
2023/10/17 06:35:45;;;;;;;7.87;2.63;;;;;;;23.95;30.79;99633.75;5095651;28;20305;-90
2023/10/17 06:38:16;;;;;;;10.63;2.23;;;;;;;23.85;31.87;99631.16;5095628;28;20175;-89
2023/10/17 06:40:46;;;;;;;6.67;2.33;;;;;;;23.94;31.63;99633.91;5094004;28;20553;-90
2023/10/17 06:43:14;;;;;;;4.80;2.20;;;;;;;23.95;31.06;99641.78;5094300;28;20249;-89
2023/10/17 06:45:54;;;;;;;6.57;2.70;;;;;;;23.83;31.02;99637.66;5093655;28;20176;-90
2023/10/17 06:48:31;;;;;;;7.80;2.10;;;;;;;23.82;31.07;99636.81;5095210;28;20156;-90
2023/10/17 06:53:47;;;;;;;7.50;2.60;;;;;;;23.93;31.41;99637.56;5095893;28;20602;-91
2023/10/17 06:56:15;;;;;;;5.40;1.90;;;;;;;24.03;31.49;99635.69;5094694;28;20218;-91
2023/10/17 06:58:42;;;;;;;6.80;2.07;;;;;;;23.98;31.64;99635.31;5095204;28;20203;-91
2023/10/17 07:01:24;;;;;;;7.33;1.93;;;;;;;23.96;31.62;99634.59;5094784;28;20708;-90
2023/10/17 07:03:54;;;;;;;4.93;1.70;;;;;;;23.93;30.92;99637.56;5078530;28;20177;-91
2023/10/17 07:06:24;;;;;;;9.47;1.43;;;;;;;23.83;30.71;99632.28;5074564;28;20577;-90
2023/10/17 07:08:51;;;;;;;4.63;1.30;;;;;;;23.68;32.03;99629.31;5082965;28;20184;-90
2023/10/17 07:16:34;;;;;;;6.00;1.83;;;;;;;23.07;31.91;99636.25;5094769;28;20208;-91
2023/10/17 07:21:57;;;;;;;5.30;1.53;;;;;;;22.74;33.48;99636.78;5094705;28;20174;-90
2023/10/17 07:24:25;;;;;;;9.03;2.00;;;;;;;22.73;33.28;99635.94;5094841;28;20179;-90
2023/10/17 07:26:53;;;;;;;7.67;2.03;;;;;;;22.62;32.87;99628.94;5093115;28;20181;-92
2023/10/17 07:29:24;;;;;;;5.07;1.33;;;;;;;22.60;33.52;99638.06;5094627;28;20172;-90
2023/10/17 07:31:52;;;;;;;5.47;2.07;;;;;;;22.58;33.47;99630.19;5078224;28;20266;-91
2023/10/17 07:34:23;;;;;;;4.53;1.90;;;;;;;22.48;33.68;99637.38;5073954;28;20215;-90
2023/10/17 07:36:58;;;;;;;14.43;1.80;;;;;;;22.44;33.53;99641.31;5072882;28;20177;-90
2023/10/17 07:39:29;;;;;;;7.17;1.63;;;;;;;22.29;33.07;99641.91;5073896;28;20648;-91
2023/10/17 07:41:55;;;;;;;8.20;1.87;;;;;;;22.14;33.79;99643.34;5074182;28;20199;-90
2023/10/17 07:44:26;;;;;;;6.40;1.93;;;;;;;22.09;33.55;99643.75;5098582;28;20185;-90
2023/10/17 07:47:09;;;;;;;4.83;1.50;;;;;;;21.91;33.47;99640.94;5094411;28;20255;-92
2023/10/17 07:49:43;;;;;;;2.20;0.50;;;;;;;21.69;33.72;99638.50;5093526;28;20237;-90
2023/10/17 07:52:12;;;;;;;3.63;0.87;;;;;;;21.43;33.93;99630.16;5094202;28;20241;-90
2023/10/17 07:54:55;;;;;;;2.73;0.80;;;;;;;21.38;34.03;99624.38;5093526;28;20176;-90
2023/10/17 07:57:27;;;;;;;5.50;1.13;;;;;;;21.13;34.98;99622.22;5093787;28;20176;-91
2023/10/17 07:59:57;;;;;;;3.67;1.27;;;;;;;21.02;35.49;99616.09;5094088;28;20156;-90
2023/10/17 08:02:30;;;;;;;2.20;1.00;;;;;;;20.88;35.81;99620.00;5093207;28;20190;-90
2023/10/17 08:05:01;;;;;;;4.07;0.93;;;;;;;20.82;35.28;99621.38;5092829;28;20198;-90
2023/10/17 08:07:29;;;;;;;3.97;0.80;;;;;;;20.80;36.24;99610.03;5094308;28;20161;-90
2023/10/17 08:09:57;;;;;;;4.13;0.77;;;;;;;20.86;35.93;99610.47;5092716;28;20199;-90
2023/10/17 08:12:29;;;;;;;5.63;0.70;;;;;;;21.16;34.72;99608.63;5093461;28;20233;-89
2023/10/17 08:14:58;;;;;;;8.30;1.07;;;;;;;21.22;35.08;99600.09;5093283;28;20189;-91
2023/10/17 08:17:27;;;;;;;3.43;0.90;;;;;;;21.23;35.47;99615.09;5092263;28;20180;-91
2023/10/17 08:22:56;;;;;;;3.53;0.53;;;;;;;21.08;34.87;99613.78;5032078;28;20185;-92
2023/10/17 08:25:30;;;;;;;1.30;0.57;;;;;;;21.04;35.41;99595.50;5030942;28;20182;-90
2023/10/17 08:27:58;;;;;;;1.43;0.57;;;;;;;21.24;34.34;99606.13;5031691;28;20196;-91
2023/10/17 08:30:28;;;;;;;1.80;0.53;;;;;;;21.22;34.42;99597.44;5015143;28;20643;-90
2023/10/17 08:35:37;;;;;;;2.73;0.57;;;;;;;21.46;33.25;99597.06;5073239;28;20204;-91
2023/10/17 08:38:03;;;;;;;6.93;0.57;;;;;;;21.33;33.68;99589.28;5073759;28;20156;-90
2023/10/17 08:43:14;;;;;;;2.77;1.10;;;;;;;21.36;33.53;99585.50;5093679;28;20684;-90
2023/10/17 08:45:47;;;;;;;3.10;0.93;;;;;;;21.39;33.80;99582.56;5093049;28;20171;-90
2023/10/17 08:48:13;;;;;;;4.77;0.70;;;;;;;21.55;33.22;99571.34;5093327;28;20174;-91
2023/10/17 08:50:39;;;;;;;1.53;0.67;;;;;;;21.68;33.33;99567.44;5093295;28;20255;-90
2023/10/17 08:53:23;;;;;;;1.37;0.83;;;;;;;21.62;33.88;99568.00;5075837;28;20193;-90
2023/10/17 08:55:50;;;;;;;2.10;0.90;;;;;;;21.57;33.39;99564.91;5075455;28;20185;-90
2023/10/17 08:58:32;;;;;;;2.23;0.80;;;;;;;21.74;32.67;99560.69;5069752;28;20178;-90
2023/10/17 09:01:07;;;;;;;2.07;1.10;;;;;;;21.75;32.71;99562.41;5068489;28;20181;-91
2023/10/17 09:03:44;;;;;;;3.40;1.23;;;;;;;21.88;32.22;99558.47;5063681;28;20176;-90
2023/10/17 09:11:25;;;;;;;3.50;0.73;;;;;;;21.83;32.39;99550.00;5093155;28;20244;-92
2023/10/17 09:14:48;;;;;;;2.60;0.73;;;;;;;21.63;32.85;99543.00;5092964;28;20652;-91
2023/10/17 09:17:21;;;;;;;2.40;0.67;;;;;;;21.75;33.08;99544.53;5095305;28;20180;-91
2023/10/17 09:19:51;;;;;;;3.87;0.90;;;;;;;21.99;33.59;99544.97;5096428;28;20165;-91
2023/10/17 09:22:36;;;;;;;4.47;1.20;;;;;;;22.27;32.11;99529.91;5096601;28;20195;-91
2023/10/17 09:25:16;;;;;;;2.30;0.80;;;;;;;22.40;32.23;99530.41;5095653;28;20625;-91
2023/10/17 09:27:44;;;;;;;2.33;0.73;;;;;;;22.42;32.68;99531.09;5096498;28;20214;-91
2023/10/17 09:30:11;;;;;;;6.37;0.90;;;;;;;22.60;32.17;99532.03;5095897;28;20186;-91
2023/10/17 09:32:40;;;;;;;2.20;0.90;;;;;;;22.66;32.05;99527.09;5095420;28;20650;-92
2023/10/17 09:35:11;;;;;;;1.87;0.80;;;;;;;22.24;32.80;99511.47;5096473;28;20697;-92
2023/10/17 09:37:42;;;;;;;1.80;0.47;;;;;;;22.52;32.95;99510.53;5097236;28;20156;-91
2023/10/17 09:40:12;;;;;;;2.67;1.00;;;;;;;22.52;31.48;99505.19;5096511;28;20229;-92
2023/10/17 09:42:45;;;;;;;3.53;0.70;;;;;;;22.44;32.05;99504.22;5095310;28;20172;-92
2023/10/17 09:45:14;;;;;;;2.10;0.80;;;;;;;22.42;32.21;99501.72;5096504;28;20706;-91
2023/10/17 09:47:45;;;;;;;2.53;0.80;;;;;;;21.98;32.74;99484.56;5096295;28;20259;-91
2023/10/17 09:50:21;;;;;;;1.07;0.70;;;;;;;21.65;32.87;99486.81;5093090;28;20196;-91
2023/10/17 09:52:51;;;;;;;2.60;0.77;;;;;;;21.73;33.22;99479.78;5074944;28;20625;-91
2023/10/17 09:55:24;;;;;;;2.63;0.97;;;;;;;22.21;32.39;99476.22;5076007;28;20172;-91
2023/10/17 09:58:08;;;;;;;3.90;0.70;;;;;;;22.26;32.81;99465.94;5076196;28;20169;-91
2023/10/17 10:00:47;;;;;;;3.97;0.80;;;;;;;22.11;32.73;99465.56;5075954;28;20618;-92
2023/10/17 10:03:17;;;;;;;4.60;0.60;;;;;;;21.83;32.60;99466.44;5096739;28;20695;-91
2023/10/17 10:05:43;;;;;;;2.10;0.60;;;;;;;22.00;33.09;99455.91;5095990;28;20267;-91
2023/10/17 10:08:35;;;;;;;1.13;0.60;;;;;;;21.99;32.95;99443.53;5096302;28;20177;-91
2023/10/17 10:11:02;;;;;;;2.10;0.73;;;;;;;22.13;33.21;99450.22;5094529;28;20625;-91
2023/10/17 10:13:31;;;;;;;3.50;1.37;;;;;;;22.17;32.58;99435.59;5095908;28;20212;-91
2023/10/17 10:15:58;;;;;;;4.83;0.73;;;;;;;22.16;32.42;99436.59;5094605;28;20558;-92
2023/10/17 10:18:42;;;;;;;1.53;0.40;;;;;;;22.35;32.71;99428.47;5094843;28;20175;-91
2023/10/17 10:21:08;;;;;;;1.10;0.60;;;;;;;22.52;32.33;99422.38;5094564;28;20263;-92
2023/10/17 10:23:41;;;;;;;2.30;0.70;;;;;;;22.58;32.88;99420.94;5095973;28;20279;-92
2023/10/17 10:26:13;;;;;;;2.90;0.70;;;;;;;22.67;32.39;99408.53;5095392;28;20172;-91
2023/10/17 10:28:43;;;;;;;1.93;0.50;;;;;;;22.64;32.21;99407.00;5095437;28;20608;-91
2023/10/17 10:31:33;;;;;;;1.80;0.60;;;;;;;22.57;31.99;99403.19;5095653;28;20195;-91
2023/10/17 10:33:59;;;;;;;3.00;0.67;;;;;;;22.42;32.37;99400.22;5095453;28;20202;-92
2023/10/17 10:36:26;;;;;;;3.90;1.03;;;;;;;22.75;32.54;99397.91;5094561;28;20212;-91
2023/10/17 10:38:57;;;;;;;1.10;0.33;;;;;;;22.96;31.52;99387.75;5092387;28;20188;-92
2023/10/17 10:41:23;;;;;;;2.50;0.67;;;;;;;22.96;33.01;99379.75;5095130;28;20568;-91
2023/10/17 10:43:58;;;;;;;1.97;0.50;;;;;;;22.97;31.60;99379.63;5093365;28;20255;-91
2023/10/17 10:46:24;;;;;;;2.67;0.57;;;;;;;22.92;31.60;99381.91;5077601;28;20289;-93
2023/10/17 10:48:53;;;;;;;1.30;0.43;;;;;;;22.52;32.32;99392.13;5094083;28;20552;-90
2023/10/17 10:51:26;;;;;;;1.73;0.80;;;;;;;22.21;33.30;99388.09;5095063;28;20168;-91
2023/10/17 10:53:56;;;;;;;1.90;0.70;;;;;;;22.19;32.91;99374.91;5094950;28;20535;-92
2023/10/17 10:56:24;;;;;;;1.50;0.50;;;;;;;22.37;33.09;99373.09;5095138;28;20164;-91
2023/10/17 10:58:55;;;;;;;1.77;0.43;;;;;;;22.65;33.08;99376.59;5095132;28;20621;-91
2023/10/17 11:01:23;;;;;;;2.93;0.53;;;;;;;22.60;33.18;99360.16;5093947;28;20188;-91
2023/10/17 11:03:50;;;;;;;3.30;0.50;;;;;;;22.99;31.82;99353.56;5093987;28;20598;-91
2023/10/17 11:06:24;;;;;;;0.70;0.30;;;;;;;23.15;31.71;99340.31;5094100;28;20543;-90
2023/10/17 11:08:51;;;;;;;3.70;0.63;;;;;;;23.19;32.00;99333.66;5095215;28;20220;-91
2023/10/17 11:11:19;;;;;;;2.60;0.70;;;;;;;23.33;31.85;99331.41;5093890;28;20176;-92
2023/10/17 11:13:52;;;;;;;1.50;0.60;;;;;;;23.11;31.52;99327.44;5094595;28;20633;-91
2023/10/17 11:16:24;;;;;;;2.47;0.60;;;;;;;23.14;31.61;99319.06;5094698;28;20221;-91
2023/10/17 11:18:52;;;;;;;1.63;0.70;;;;;;;23.21;32.10;99314.78;5094671;28;20583;-92
2023/10/17 11:21:21;;;;;;;7.17;0.77;;;;;;;23.30;31.80;99313.84;5094354;28;20232;-91
2023/10/17 11:23:53;;;;;;;4.30;0.90;;;;;;;23.33;31.86;99312.69;5094611;28;20259;-91
2023/10/17 11:26:26;;;;;;;4.13;0.63;;;;;;;23.41;31.63;99310.94;5094677;28;20210;-92
2023/10/17 11:28:53;;;;;;;4.10;0.80;;;;;;;23.56;31.27;99304.00;5093423;28;20262;-92
2023/10/17 11:31:22;;;;;;;2.93;0.50;;;;;;;23.32;30.90;99317.22;5094103;28;20200;-92
2023/10/17 11:34:12;;;;;;;1.63;0.63;;;;;;;23.02;31.55;99321.16;5094381;28;20195;-91
2023/10/17 11:36:55;;;;;;;1.20;0.47;;;;;;;23.04;31.52;99307.63;5092706;28;20237;-91
2023/10/17 11:39:26;;;;;;;1.73;0.50;;;;;;;23.22;32.28;99303.94;5054211;28;20166;-92
2023/10/17 11:41:55;;;;;;;1.20;0.53;;;;;;;23.18;31.07;99291.03;5056430;28;20165;-91
2023/10/17 11:44:25;;;;;;;2.40;0.90;;;;;;;23.17;31.38;99300.03;5093366;28;20172;-92
2023/10/17 11:47:03;;;;;;;2.13;0.40;;;;;;;22.97;32.31;99290.53;5072909;28;20192;-92
2023/10/17 11:49:38;;;;;;;2.60;0.50;;;;;;;23.15;31.62;99294.03;5091035;28;20227;-92
2023/10/17 11:52:15;;;;;;;1.30;0.50;;;;;;;23.21;31.58;99290.72;5094229;28;20184;-91
2023/10/17 11:55:00;;;;;;;1.97;0.40;;;;;;;23.21;31.85;99293.41;5094047;28;20172;-92
2023/10/17 11:57:28;;;;;;;1.30;0.53;;;;;;;23.26;31.59;99291.09;5094236;28;20167;-92
2023/10/17 12:00:06;;;;;;;2.90;0.50;;;;;;;23.07;31.70;99297.47;5091888;28;20505;-93
2023/10/17 12:02:33;;;;;;;2.47;0.90;;;;;;;22.92;31.56;99290.16;5074022;28;20149;-91
2023/10/17 12:05:00;;;;;;;2.60;0.60;;;;;;;22.90;31.83;99290.34;5076347;28;20208;-92
2023/10/17 12:07:29;;;;;;;2.37;0.80;;;;;;;22.87;31.54;99282.63;5093899;28;20200;-92
2023/10/17 12:10:04;;;;;;;1.67;0.40;;;;;;;22.87;31.73;99284.44;5094164;28;20176;-92
2023/10/17 12:12:33;;;;;;;1.83;0.50;;;;;;;22.95;31.91;99271.16;5110234;28;20202;-92
2023/10/17 12:14:58;;;;;;;1.57;0.50;;;;;;;23.04;31.66;99280.91;5093613;28;20255;-92
2023/10/17 12:17:25;;;;;;;1.57;0.27;;;;;;;23.05;31.43;99278.09;5093824;28;20655;-91
2023/10/17 12:19:53;;;;;;;1.17;0.40;;;;;;;23.32;30.60;99266.41;5093627;28;20172;-90
2023/10/17 12:22:19;;;;;;;1.87;0.50;;;;;;;23.25;31.29;99273.34;5093088;28;20211;-92
2023/10/17 12:24:46;;;;;;;1.53;0.50;;;;;;;23.24;31.52;99282.41;5093611;28;20215;-92
2023/10/17 12:27:13;;;;;;;3.13;0.77;;;;;;;23.21;31.29;99275.53;5092470;28;20188;-91
2023/10/17 12:29:41;;;;;;;2.93;0.63;;;;;;;23.21;31.50;99270.19;5093558;28;20180;-91
2023/10/17 12:32:10;;;;;;;1.57;0.47;;;;;;;23.36;31.51;99273.09;5092434;28;20568;-91
2023/10/17 12:34:40;;;;;;;2.40;0.50;;;;;;;23.48;31.44;99266.50;5093163;28;20314;-92
2023/10/17 12:37:11;;;;;;;3.27;0.43;;;;;;;23.52;30.90;99272.38;5092610;28;20184;-91
2023/10/17 12:39:37;;;;;;;1.60;0.40;;;;;;;23.48;30.54;99269.19;5093640;28;20204;-92
2023/10/17 12:42:05;;;;;;;2.37;0.30;;;;;;;23.36;30.35;99264.22;5092557;28;20172;-92
2023/10/17 12:44:31;;;;;;;1.77;0.50;;;;;;;23.15;30.76;99259.25;5092241;28;20187;-90
2023/10/17 12:46:57;;;;;;;2.53;0.57;;;;;;;23.07;30.52;99256.53;5083615;28;20177;-92
2023/10/17 12:49:22;;;;;;;1.50;0.50;;;;;;;22.95;30.71;99255.94;5091179;28;20188;-92
2023/10/17 12:51:48;;;;;;;1.83;0.60;;;;;;;22.88;30.59;99249.53;5097262;28;20750;-91
2023/10/17 12:54:13;;;;;;;1.30;0.60;;;;;;;22.77;30.67;99247.13;5095892;28;20184;-91
2023/10/17 12:56:39;;;;;;;6.17;0.60;;;;;;;22.89;30.57;99242.34;5097295;28;20206;-91
2023/10/17 12:59:05;;;;;;;1.00;0.30;;;;;;;23.10;30.36;99242.84;5096476;28;20270;-91
2023/10/17 13:01:31;;;;;;;0.67;0.27;;;;;;;23.12;30.64;99240.84;5096435;28;20531;-92
2023/10/17 13:03:59;;;;;;;0.90;0.30;;;;;;;23.06;30.67;99228.13;5096244;28;20195;-92
2023/10/17 13:06:26;;;;;;;1.00;0.20;;;;;;;22.91;30.75;99235.84;5095846;28;20698;-91
2023/10/17 13:08:56;;;;;;;3.43;0.97;;;;;;;23.07;31.03;99227.09;5094696;28;20673;-91
2023/10/17 13:11:24;;;;;;;0.37;0.20;;;;;;;23.14;30.82;99228.16;5076856;28;20185;-91
2023/10/17 13:13:49;;;;;;;3.03;0.90;;;;;;;23.11;31.00;99233.84;5091294;28;20184;-92
2023/10/17 13:16:15;;;;;;;1.20;0.60;;;;;;;22.91;30.66;99227.00;5096755;28;20600;-90
2023/10/17 13:18:40;;;;;;;2.40;0.40;;;;;;;22.68;31.31;99237.34;5094416;28;20189;-92
2023/10/17 13:21:15;;;;;;;2.37;0.40;;;;;;;22.71;30.68;99230.84;5084692;28;20641;-91
2023/10/17 13:23:42;;;;;;;1.50;0.37;;;;;;;22.90;31.23;99228.00;5096219;28;20245;-92
2023/10/17 13:26:21;;;;;;;2.43;0.57;;;;;;;22.88;31.04;99229.97;5096405;28;20298;-91
2023/10/17 13:28:50;;;;;;;2.57;0.40;;;;;;;22.84;31.43;99225.94;5089766;28;20195;-91
2023/10/17 13:31:16;;;;;;;2.33;0.60;;;;;;;22.75;31.81;99227.72;5076491;28;20298;-91
2023/10/17 13:33:43;;;;;;;4.23;0.70;;;;;;;22.78;31.99;99234.56;5093911;28;20752;-91
2023/10/17 13:36:16;;;;;;;3.30;0.77;;;;;;;22.85;32.36;99225.78;5096791;28;20255;-91
2023/10/17 13:38:43;;;;;;;1.60;0.50;;;;;;;22.94;31.90;99221.34;5096172;28;20226;-91
2023/10/17 13:41:10;;;;;;;4.20;0.60;;;;;;;23.03;31.88;99225.75;5096221;28;20192;-91
2023/10/17 13:43:41;;;;;;;1.60;0.40;;;;;;;23.01;31.77;99222.38;5096970;28;20536;-92
2023/10/17 13:46:14;;;;;;;2.33;0.40;;;;;;;22.99;32.06;99229.72;5078601;28;20185;-91
2023/10/17 13:48:48;;;;;;;2.23;0.40;;;;;;;23.03;31.96;99231.09;5076351;28;20177;-92
2023/10/17 13:51:18;;;;;;;1.53;0.57;;;;;;;23.07;32.23;99224.44;5091469;28;20200;-91
2023/10/17 13:53:45;;;;;;;1.77;0.40;;;;;;;23.00;31.66;99218.03;5094932;28;20228;-91
2023/10/17 13:56:18;;;;;;;1.60;0.43;;;;;;;22.95;31.74;99226.53;5096377;28;20176;-90
2023/10/17 13:58:46;;;;;;;2.77;0.50;;;;;;;22.94;31.80;99224.00;5096853;28;20209;-91
2023/10/17 14:01:33;;;;;;;2.10;0.53;;;;;;;22.98;31.96;99222.72;5094850;28;20628;-91
2023/10/17 14:04:01;;;;;;;0.70;0.37;;;;;;;22.84;32.36;99215.25;5090190;28;20524;-91
2023/10/17 14:06:50;;;;;;;3.00;0.53;;;;;;;22.93;32.10;99219.69;5075765;28;20172;-91